sensor_id;sensor_type;location;lat;lon;timestamp;P1;durP1;ratioP1;P2;durP2;ratioP2
68319;SDS011;55168;51.120;17.024;2024-01-06T00:00:00;46.6;;;28.6;;
68319;SDS011;55168;51.120;17.024;2024-01-06T00:01:00;48.3;;;29.4;;
68319;SDS011;55168;51.120;17.024;2024-01-06T00:02:00;48.3;;;29.4;;
68319;SDS011;55168;51.120;17.024;2024-01-06T00:03:00;48.3;;;29.4;;
68319;SDS011;55168;51.120;17.024;2024-01-06T00:04:00;48.3;;;29.4;;
68319;SDS011;55168;51.120;17.024;2024-01-06T00:05:00;48.3;;;29.4;;
68319;SDS011;55168;51.120;17.024;2024-01-06T00:06:00;48.0;;;28.3;;
68319;SDS011;55168;51.120;17.024;2024-01-06T00:07:00;48.0;;;28.3;;
68319;SDS011;55168;51.120;17.024;2024-01-06T00:08:00;48.0;;;28.3;;
68319;SDS011;55168;51.120;17.024;2024-01-06T00:09:00;48.0;;;28.3;;
68319;SDS011;55168;51.120;17.024;2024-01-06T00:10:00;48.0;;;28.3;;
68319;SDS011;55168;51.120;17.024;2024-01-06T00:11:00;47.4;;;30.0;;
68319;SDS011;55168;51.120;17.024;2024-01-06T00:12:00;47.4;;;30.0;;
68319;SDS011;55168;51.120;17.024;2024-01-06T00:13:00;47.4;;;30.0;;
68319;SDS011;55168;51.120;17.024;2024-01-06T00:14:00;47.4;;;30.0;;
68319;SDS011;55168;51.120;17.024;2024-01-06T00:15:00;47.4;;;30.0;;
68319;SDS011;55168;51.120;17.024;2024-01-06T00:16:00;48.9;;;29.6;;
68319;SDS011;55168;51.120;17.024;2024-01-06T00:17:00;48.9;;;29.6;;
68319;SDS011;55168;51.120;17.024;2024-01-06T00:18:00;48.9;;;29.6;;
68319;SDS011;55168;51.120;17.024;2024-01-06T00:19:00;48.9;;;29.6;;
68319;SDS011;55168;51.120;17.024;2024-01-06T00:20:00;48.9;;;29.6;;
68319;SDS011;55168;51.120;17.024;2024-01-06T00:21:00;72.0;;;46.5;;
68319;SDS011;55168;51.120;17.024;2024-01-06T00:22:00;72.0;;;46.5;;
68319;SDS011;55168;51.120;17.024;2024-01-06T00:23:00;72.0;;;46.5;;
68319;SDS011;55168;51.120;17.024;2024-01-06T00:24:00;72.0;;;46.5;;
68319;SDS011;55168;51.120;17.024;2024-01-06T00:25:00;72.0;;;46.5;;
68319;SDS011;55168;51.120;17.024;2024-01-06T00:26:00;53.5;;;32.0;;
68319;SDS011;55168;51.120;17.024;2024-01-06T00:27:00;53.5;;;32.0;;
68319;SDS011;55168;51.120;17.024;2024-01-06T00:28:00;53.5;;;32.0;;
68319;SDS011;55168;51.120;17.024;2024-01-06T00:29:00;53.5;;;32.0;;
68319;SDS011;55168;51.120;17.024;2024-01-06T00:30:00;53.5;;;32.0;;
68319;SDS011;55168;51.120;17.024;2024-01-06T00:31:00;50.2;;;29.7;;
68319;SDS011;55168;51.120;17.024;2024-01-06T00:32:00;50.2;;;29.7;;
68319;SDS011;55168;51.120;17.024;2024-01-06T00:33:00;50.2;;;29.7;;
68319;SDS011;55168;51.120;17.024;2024-01-06T00:34:00;50.2;;;29.7;;
68319;SDS011;55168;51.120;17.024;2024-01-06T00:35:00;50.2;;;29.7;;
68319;SDS011;55168;51.120;17.024;2024-01-06T00:36:00;50.8;;;30.1;;
68319;SDS011;55168;51.120;17.024;2024-01-06T00:37:00;50.8;;;30.1;;
68319;SDS011;55168;51.120;17.024;2024-01-06T00:38:00;50.8;;;30.1;;
68319;SDS011;55168;51.120;17.024;2024-01-06T00:39:00;50.8;;;30.1;;
68319;SDS011;55168;51.120;17.024;2024-01-06T00:40:00;50.8;;;30.1;;
68319;SDS011;55168;51.120;17.024;2024-01-06T00:41:00;48.9;;;30.4;;
68319;SDS011;55168;51.120;17.024;2024-01-06T00:42:00;48.9;;;30.4;;
68319;SDS011;55168;51.120;17.024;2024-01-06T00:43:00;48.9;;;30.4;;
68319;SDS011;55168;51.120;17.024;2024-01-06T00:44:00;48.9;;;30.4;;
68319;SDS011;55168;51.120;17.024;2024-01-06T00:45:00;48.9;;;30.4;;
68319;SDS011;55168;51.120;17.024;2024-01-06T00:46:00;47.2;;;30.1;;
68319;SDS011;55168;51.120;17.024;2024-01-06T00:47:00;47.2;;;30.1;;
68319;SDS011;55168;51.120;17.024;2024-01-06T00:48:00;47.2;;;30.1;;
68319;SDS011;55168;51.120;17.024;2024-01-06T00:49:00;47.2;;;30.1;;
68319;SDS011;55168;51.120;17.024;2024-01-06T00:50:00;47.2;;;30.1;;
68319;SDS011;55168;51.120;17.024;2024-01-06T00:51:00;48.1;;;30.0;;
68319;SDS011;55168;51.120;17.024;2024-01-06T00:52:00;48.1;;;30.0;;
68319;SDS011;55168;51.120;17.024;2024-01-06T00:53:00;48.1;;;30.0;;
68319;SDS011;55168;51.120;17.024;2024-01-06T00:54:00;48.1;;;30.0;;
68319;SDS011;55168;51.120;17.024;2024-01-06T00:55:00;48.1;;;30.0;;
68319;SDS011;55168;51.120;17.024;2024-01-06T00:56:00;46.2;;;29.0;;
68319;SDS011;55168;51.120;17.024;2024-01-06T00:57:00;46.2;;;29.0;;
68319;SDS011;55168;51.120;17.024;2024-01-06T00:58:00;46.2;;;29.0;;
68319;SDS011;55168;51.120;17.024;2024-01-06T00:59:00;46.2;;;29.0;;
68319;SDS011;55168;51.120;17.024;2024-01-06T01:00:00;46.2;;;29.0;;
68319;SDS011;55168;51.120;17.024;2024-01-06T01:01:00;45.7;;;28.8;;
68319;SDS011;55168;51.120;17.024;2024-01-06T01:02:00;45.7;;;28.8;;
68319;SDS011;55168;51.120;17.024;2024-01-06T01:03:00;45.7;;;28.8;;
68319;SDS011;55168;51.120;17.024;2024-01-06T01:04:00;45.7;;;28.8;;
68319;SDS011;55168;51.120;17.024;2024-01-06T01:05:00;45.7;;;28.8;;
68319;SDS011;55168;51.120;17.024;2024-01-06T01:06:00;49.0;;;29.0;;
68319;SDS011;55168;51.120;17.024;2024-01-06T01:07:00;49.0;;;29.0;;
68319;SDS011;55168;51.120;17.024;2024-01-06T01:08:00;49.0;;;29.0;;
68319;SDS011;55168;51.120;17.024;2024-01-06T01:09:00;49.0;;;29.0;;
68319;SDS011;55168;51.120;17.024;2024-01-06T01:10:00;49.0;;;29.0;;
68319;SDS011;55168;51.120;17.024;2024-01-06T01:11:00;44.9;;;27.8;;
68319;SDS011;55168;51.120;17.024;2024-01-06T01:12:00;44.9;;;27.8;;
68319;SDS011;55168;51.120;17.024;2024-01-06T01:13:00;44.9;;;27.8;;
68319;SDS011;55168;51.120;17.024;2024-01-06T01:14:00;44.9;;;27.8;;
68319;SDS011;55168;51.120;17.024;2024-01-06T01:15:00;44.9;;;27.8;;
68319;SDS011;55168;51.120;17.024;2024-01-06T01:16:00;49.8;;;29.4;;
68319;SDS011;55168;51.120;17.024;2024-01-06T01:17:00;49.8;;;29.4;;
68319;SDS011;55168;51.120;17.024;2024-01-06T01:18:00;49.8;;;29.4;;
68319;SDS011;55168;51.120;17.024;2024-01-06T01:19:00;49.8;;;29.4;;
68319;SDS011;55168;51.120;17.024;2024-01-06T01:20:00;48.7;;;30.4;;
68319;SDS011;55168;51.120;17.024;2024-01-06T01:21:00;48.7;;;30.4;;
68319;SDS011;55168;51.120;17.024;2024-01-06T01:22:00;48.7;;;30.4;;
68319;SDS011;55168;51.120;17.024;2024-01-06T01:23:00;48.7;;;30.4;;
68319;SDS011;55168;51.120;17.024;2024-01-06T01:24:00;48.7;;;30.4;;
68319;SDS011;55168;51.120;17.024;2024-01-06T01:25:00;46.6;;;29.3;;
68319;SDS011;55168;51.120;17.024;2024-01-06T01:26:00;46.6;;;29.3;;
68319;SDS011;55168;51.120;17.024;2024-01-06T01:27:00;46.6;;;29.3;;
68319;SDS011;55168;51.120;17.024;2024-01-06T01:28:00;46.6;;;29.3;;
68319;SDS011;55168;51.120;17.024;2024-01-06T01:29:00;46.6;;;29.3;;
68319;SDS011;55168;51.120;17.024;2024-01-06T01:30:00;45.7;;;29.8;;
68319;SDS011;55168;51.120;17.024;2024-01-06T01:31:00;45.7;;;29.8;;
68319;SDS011;55168;51.120;17.024;2024-01-06T01:32:00;45.7;;;29.8;;
68319;SDS011;55168;51.120;17.024;2024-01-06T01:33:00;45.7;;;29.8;;
68319;SDS011;55168;51.120;17.024;2024-01-06T01:34:00;45.7;;;29.8;;
68319;SDS011;55168;51.120;17.024;2024-01-06T01:35:00;47.6;;;29.3;;
68319;SDS011;55168;51.120;17.024;2024-01-06T01:36:00;47.6;;;29.3;;
68319;SDS011;55168;51.120;17.024;2024-01-06T01:37:00;47.6;;;29.3;;
68319;SDS011;55168;51.120;17.024;2024-01-06T01:38:00;47.6;;;29.3;;
68319;SDS011;55168;51.120;17.024;2024-01-06T01:39:00;47.6;;;29.3;;
68319;SDS011;55168;51.120;17.024;2024-01-06T01:40:00;46.4;;;29.2;;
68319;SDS011;55168;51.120;17.024;2024-01-06T01:41:00;46.4;;;29.2;;
68319;SDS011;55168;51.120;17.024;2024-01-06T01:42:00;46.4;;;29.2;;
68319;SDS011;55168;51.120;17.024;2024-01-06T01:43:00;46.4;;;29.2;;
68319;SDS011;55168;51.120;17.024;2024-01-06T01:44:00;46.4;;;29.2;;
68319;SDS011;55168;51.120;17.024;2024-01-06T01:45:00;48.3;;;30.2;;
68319;SDS011;55168;51.120;17.024;2024-01-06T01:46:00;48.3;;;30.2;;
68319;SDS011;55168;51.120;17.024;2024-01-06T01:47:00;48.3;;;30.2;;
68319;SDS011;55168;51.120;17.024;2024-01-06T01:48:00;48.3;;;30.2;;
68319;SDS011;55168;51.120;17.024;2024-01-06T01:49:01;48.3;;;30.2;;
68319;SDS011;55168;51.120;17.024;2024-01-06T01:50:00;47.5;;;30.3;;
68319;SDS011;55168;51.120;17.024;2024-01-06T01:51:00;47.5;;;30.3;;
68319;SDS011;55168;51.120;17.024;2024-01-06T01:52:00;47.5;;;30.3;;
68319;SDS011;55168;51.120;17.024;2024-01-06T01:53:00;47.5;;;30.3;;
68319;SDS011;55168;51.120;17.024;2024-01-06T01:54:01;47.5;;;30.3;;
68319;SDS011;55168;51.120;17.024;2024-01-06T01:55:00;51.2;;;31.7;;
68319;SDS011;55168;51.120;17.024;2024-01-06T01:56:00;51.2;;;31.7;;
68319;SDS011;55168;51.120;17.024;2024-01-06T01:57:01;51.2;;;31.7;;
68319;SDS011;55168;51.120;17.024;2024-01-06T01:58:00;51.2;;;31.7;;
68319;SDS011;55168;51.120;17.024;2024-01-06T01:59:05;51.2;;;31.7;;
68319;SDS011;55168;51.120;17.024;2024-01-06T02:00:00;48.1;;;29.8;;
68319;SDS011;55168;51.120;17.024;2024-01-06T02:01:00;48.1;;;29.8;;
68319;SDS011;55168;51.120;17.024;2024-01-06T02:02:01;48.1;;;29.8;;
68319;SDS011;55168;51.120;17.024;2024-01-06T02:03:00;48.1;;;29.8;;
68319;SDS011;55168;51.120;17.024;2024-01-06T02:04:00;48.1;;;29.8;;
68319;SDS011;55168;51.120;17.024;2024-01-06T02:05:00;48.8;;;30.8;;
68319;SDS011;55168;51.120;17.024;2024-01-06T02:06:00;48.8;;;30.8;;
68319;SDS011;55168;51.120;17.024;2024-01-06T02:07:00;48.8;;;30.8;;
68319;SDS011;55168;51.120;17.024;2024-01-06T02:08:00;48.8;;;30.8;;
68319;SDS011;55168;51.120;17.024;2024-01-06T02:09:00;48.8;;;30.8;;
68319;SDS011;55168;51.120;17.024;2024-01-06T02:10:00;46.7;;;30.3;;
68319;SDS011;55168;51.120;17.024;2024-01-06T02:11:00;46.7;;;30.3;;
68319;SDS011;55168;51.120;17.024;2024-01-06T02:12:00;46.7;;;30.3;;
68319;SDS011;55168;51.120;17.024;2024-01-06T02:13:09;46.7;;;30.3;;
68319;SDS011;55168;51.120;17.024;2024-01-06T02:14:00;46.7;;;30.3;;
68319;SDS011;55168;51.120;17.024;2024-01-06T02:15:00;46.8;;;29.0;;
68319;SDS011;55168;51.120;17.024;2024-01-06T02:16:00;46.8;;;29.0;;
68319;SDS011;55168;51.120;17.024;2024-01-06T02:17:00;46.8;;;29.0;;
68319;SDS011;55168;51.120;17.024;2024-01-06T02:18:00;46.8;;;29.0;;
68319;SDS011;55168;51.120;17.024;2024-01-06T02:19:00;46.8;;;29.0;;
68319;SDS011;55168;51.120;17.024;2024-01-06T02:20:00;49.5;;;30.4;;
68319;SDS011;55168;51.120;17.024;2024-01-06T02:21:02;49.5;;;30.4;;
68319;SDS011;55168;51.120;17.024;2024-01-06T02:22:00;49.5;;;30.4;;
68319;SDS011;55168;51.120;17.024;2024-01-06T02:23:00;49.5;;;30.4;;
68319;SDS011;55168;51.120;17.024;2024-01-06T02:24:00;49.5;;;30.4;;
68319;SDS011;55168;51.120;17.024;2024-01-06T02:25:00;47.0;;;28.7;;
68319;SDS011;55168;51.120;17.024;2024-01-06T02:26:00;47.0;;;28.7;;
68319;SDS011;55168;51.120;17.024;2024-01-06T02:27:00;47.0;;;28.7;;
68319;SDS011;55168;51.120;17.024;2024-01-06T02:28:00;47.0;;;28.7;;
68319;SDS011;55168;51.120;17.024;2024-01-06T02:29:00;47.0;;;28.7;;
68319;SDS011;55168;51.120;17.024;2024-01-06T02:30:00;47.3;;;30.6;;
68319;SDS011;55168;51.120;17.024;2024-01-06T02:31:00;47.3;;;30.6;;
68319;SDS011;55168;51.120;17.024;2024-01-06T02:32:00;47.3;;;30.6;;
68319;SDS011;55168;51.120;17.024;2024-01-06T02:33:00;47.3;;;30.6;;
68319;SDS011;55168;51.120;17.024;2024-01-06T02:34:00;47.3;;;30.6;;
68319;SDS011;55168;51.120;17.024;2024-01-06T02:35:00;46.9;;;31.3;;
68319;SDS011;55168;51.120;17.024;2024-01-06T02:36:00;46.9;;;31.3;;
68319;SDS011;55168;51.120;17.024;2024-01-06T02:37:00;46.9;;;31.3;;
68319;SDS011;55168;51.120;17.024;2024-01-06T02:38:00;46.9;;;31.3;;
68319;SDS011;55168;51.120;17.024;2024-01-06T02:39:00;46.9;;;31.3;;
68319;SDS011;55168;51.120;17.024;2024-01-06T02:40:00;47.2;;;30.3;;
68319;SDS011;55168;51.120;17.024;2024-01-06T02:41:00;47.2;;;30.3;;
68319;SDS011;55168;51.120;17.024;2024-01-06T02:42:00;47.2;;;30.3;;
68319;SDS011;55168;51.120;17.024;2024-01-06T02:43:00;47.2;;;30.3;;
68319;SDS011;55168;51.120;17.024;2024-01-06T02:44:00;47.2;;;30.3;;
68319;SDS011;55168;51.120;17.024;2024-01-06T02:45:00;46.1;;;30.3;;
68319;SDS011;55168;51.120;17.024;2024-01-06T02:46:00;46.1;;;30.3;;
68319;SDS011;55168;51.120;17.024;2024-01-06T02:47:00;46.1;;;30.3;;
68319;SDS011;55168;51.120;17.024;2024-01-06T02:48:00;46.1;;;30.3;;
68319;SDS011;55168;51.120;17.024;2024-01-06T02:49:00;46.1;;;30.3;;
68319;SDS011;55168;51.120;17.024;2024-01-06T02:50:00;48.2;;;30.9;;
68319;SDS011;55168;51.120;17.024;2024-01-06T02:51:00;48.2;;;30.9;;
68319;SDS011;55168;51.120;17.024;2024-01-06T02:52:00;48.2;;;30.9;;
68319;SDS011;55168;51.120;17.024;2024-01-06T02:53:00;48.2;;;30.9;;
68319;SDS011;55168;51.120;17.024;2024-01-06T02:54:00;48.2;;;30.9;;
68319;SDS011;55168;51.120;17.024;2024-01-06T02:55:00;49.7;;;30.5;;
68319;SDS011;55168;51.120;17.024;2024-01-06T02:56:00;49.7;;;30.5;;
68319;SDS011;55168;51.120;17.024;2024-01-06T02:57:00;49.7;;;30.5;;
68319;SDS011;55168;51.120;17.024;2024-01-06T02:58:00;49.7;;;30.5;;
68319;SDS011;55168;51.120;17.024;2024-01-06T02:59:00;49.7;;;30.5;;
68319;SDS011;55168;51.120;17.024;2024-01-06T03:00:00;45.8;;;28.8;;
68319;SDS011;55168;51.120;17.024;2024-01-06T03:01:00;45.8;;;28.8;;
68319;SDS011;55168;51.120;17.024;2024-01-06T03:02:01;45.8;;;28.8;;
68319;SDS011;55168;51.120;17.024;2024-01-06T03:03:00;45.8;;;28.8;;
68319;SDS011;55168;51.120;17.024;2024-01-06T03:04:00;45.8;;;28.8;;
68319;SDS011;55168;51.120;17.024;2024-01-06T03:05:00;46.8;;;27.0;;
68319;SDS011;55168;51.120;17.024;2024-01-06T03:06:00;46.8;;;27.0;;
68319;SDS011;55168;51.120;17.024;2024-01-06T03:07:00;46.8;;;27.0;;
68319;SDS011;55168;51.120;17.024;2024-01-06T03:08:00;46.8;;;27.0;;
68319;SDS011;55168;51.120;17.024;2024-01-06T03:09:00;46.8;;;27.0;;
68319;SDS011;55168;51.120;17.024;2024-01-06T03:10:00;47.0;;;30.1;;
68319;SDS011;55168;51.120;17.024;2024-01-06T03:11:00;47.0;;;30.1;;
68319;SDS011;55168;51.120;17.024;2024-01-06T03:12:00;47.0;;;30.1;;
68319;SDS011;55168;51.120;17.024;2024-01-06T03:13:00;47.0;;;30.1;;
68319;SDS011;55168;51.120;17.024;2024-01-06T03:14:00;47.0;;;30.1;;
68319;SDS011;55168;51.120;17.024;2024-01-06T03:15:00;43.9;;;29.2;;
68319;SDS011;55168;51.120;17.024;2024-01-06T03:16:03;43.9;;;29.2;;
68319;SDS011;55168;51.120;17.024;2024-01-06T03:17:00;43.9;;;29.2;;
68319;SDS011;55168;51.120;17.024;2024-01-06T03:18:00;43.9;;;29.2;;
68319;SDS011;55168;51.120;17.024;2024-01-06T03:19:00;43.9;;;29.2;;
68319;SDS011;55168;51.120;17.024;2024-01-06T03:20:00;42.3;;;28.3;;
68319;SDS011;55168;51.120;17.024;2024-01-06T03:21:00;42.3;;;28.3;;
68319;SDS011;55168;51.120;17.024;2024-01-06T03:22:00;42.3;;;28.3;;
68319;SDS011;55168;51.120;17.024;2024-01-06T03:23:00;42.3;;;28.3;;
68319;SDS011;55168;51.120;17.024;2024-01-06T03:24:00;42.3;;;28.3;;
68319;SDS011;55168;51.120;17.024;2024-01-06T03:25:00;46.8;;;28.4;;
68319;SDS011;55168;51.120;17.024;2024-01-06T03:26:05;46.8;;;28.4;;
68319;SDS011;55168;51.120;17.024;2024-01-06T03:27:00;46.8;;;28.4;;
68319;SDS011;55168;51.120;17.024;2024-01-06T03:28:00;46.8;;;28.4;;
68319;SDS011;55168;51.120;17.024;2024-01-06T03:29:00;46.8;;;28.4;;
68319;SDS011;55168;51.120;17.024;2024-01-06T03:30:00;45.9;;;28.9;;
68319;SDS011;55168;51.120;17.024;2024-01-06T03:31:00;45.9;;;28.9;;
68319;SDS011;55168;51.120;17.024;2024-01-06T03:32:00;45.9;;;28.9;;
68319;SDS011;55168;51.120;17.024;2024-01-06T03:33:00;45.9;;;28.9;;
68319;SDS011;55168;51.120;17.024;2024-01-06T03:34:00;45.9;;;28.9;;
68319;SDS011;55168;51.120;17.024;2024-01-06T03:35:00;45.2;;;27.2;;
68319;SDS011;55168;51.120;17.024;2024-01-06T03:36:05;45.2;;;27.2;;
68319;SDS011;55168;51.120;17.024;2024-01-06T03:37:00;45.2;;;27.2;;
68319;SDS011;55168;51.120;17.024;2024-01-06T03:38:00;45.2;;;27.2;;
68319;SDS011;55168;51.120;17.024;2024-01-06T03:39:00;45.2;;;27.2;;
68319;SDS011;55168;51.120;17.024;2024-01-06T03:40:00;44.6;;;28.6;;
68319;SDS011;55168;51.120;17.024;2024-01-06T03:41:00;44.6;;;28.6;;
68319;SDS011;55168;51.120;17.024;2024-01-06T03:42:00;44.6;;;28.6;;
68319;SDS011;55168;51.120;17.024;2024-01-06T03:43:00;44.6;;;28.6;;
68319;SDS011;55168;51.120;17.024;2024-01-06T03:44:00;44.6;;;28.6;;
68319;SDS011;55168;51.120;17.024;2024-01-06T03:45:00;44.2;;;27.9;;
68319;SDS011;55168;51.120;17.024;2024-01-06T03:46:00;44.2;;;27.9;;
68319;SDS011;55168;51.120;17.024;2024-01-06T03:47:00;44.2;;;27.9;;
68319;SDS011;55168;51.120;17.024;2024-01-06T03:48:00;44.2;;;27.9;;
68319;SDS011;55168;51.120;17.024;2024-01-06T03:49:00;44.2;;;27.9;;
68319;SDS011;55168;51.120;17.024;2024-01-06T03:50:00;41.6;;;26.7;;
68319;SDS011;55168;51.120;17.024;2024-01-06T03:51:00;41.6;;;26.7;;
68319;SDS011;55168;51.120;17.024;2024-01-06T03:52:00;41.6;;;26.7;;
68319;SDS011;55168;51.120;17.024;2024-01-06T03:53:00;41.6;;;26.7;;
68319;SDS011;55168;51.120;17.024;2024-01-06T03:54:00;41.6;;;26.7;;
68319;SDS011;55168;51.120;17.024;2024-01-06T03:55:00;43.6;;;27.8;;
68319;SDS011;55168;51.120;17.024;2024-01-06T03:56:00;43.6;;;27.8;;
68319;SDS011;55168;51.120;17.024;2024-01-06T03:57:00;43.6;;;27.8;;
68319;SDS011;55168;51.120;17.024;2024-01-06T03:58:00;43.6;;;27.8;;
68319;SDS011;55168;51.120;17.024;2024-01-06T03:59:00;43.6;;;27.8;;
68319;SDS011;55168;51.120;17.024;2024-01-06T04:00:00;41.1;;;26.4;;
68319;SDS011;55168;51.120;17.024;2024-01-06T04:01:00;41.1;;;26.4;;
68319;SDS011;55168;51.120;17.024;2024-01-06T04:02:00;41.1;;;26.4;;
68319;SDS011;55168;51.120;17.024;2024-01-06T04:03:00;41.1;;;26.4;;
68319;SDS011;55168;51.120;17.024;2024-01-06T04:04:00;41.1;;;26.4;;
68319;SDS011;55168;51.120;17.024;2024-01-06T04:05:00;41.6;;;27.3;;
68319;SDS011;55168;51.120;17.024;2024-01-06T04:06:00;41.6;;;27.3;;
68319;SDS011;55168;51.120;17.024;2024-01-06T04:07:00;41.6;;;27.3;;
68319;SDS011;55168;51.120;17.024;2024-01-06T04:08:00;41.6;;;27.3;;
68319;SDS011;55168;51.120;17.024;2024-01-06T04:09:00;41.6;;;27.3;;
68319;SDS011;55168;51.120;17.024;2024-01-06T04:10:00;42.2;;;28.4;;
68319;SDS011;55168;51.120;17.024;2024-01-06T04:11:00;42.2;;;28.4;;
68319;SDS011;55168;51.120;17.024;2024-01-06T04:12:00;42.2;;;28.4;;
68319;SDS011;55168;51.120;17.024;2024-01-06T04:13:00;42.2;;;28.4;;
68319;SDS011;55168;51.120;17.024;2024-01-06T04:14:00;42.2;;;28.4;;
68319;SDS011;55168;51.120;17.024;2024-01-06T04:15:00;43.4;;;28.1;;
68319;SDS011;55168;51.120;17.024;2024-01-06T04:16:00;43.4;;;28.1;;
68319;SDS011;55168;51.120;17.024;2024-01-06T04:17:00;43.4;;;28.1;;
68319;SDS011;55168;51.120;17.024;2024-01-06T04:18:02;43.4;;;28.1;;
68319;SDS011;55168;51.120;17.024;2024-01-06T04:19:00;43.4;;;28.1;;
68319;SDS011;55168;51.120;17.024;2024-01-06T04:20:00;46.4;;;29.1;;
68319;SDS011;55168;51.120;17.024;2024-01-06T04:21:00;46.4;;;29.1;;
68319;SDS011;55168;51.120;17.024;2024-01-06T04:22:00;46.4;;;29.1;;
68319;SDS011;55168;51.120;17.024;2024-01-06T04:23:00;46.4;;;29.1;;
68319;SDS011;55168;51.120;17.024;2024-01-06T04:24:00;46.4;;;29.1;;
68319;SDS011;55168;51.120;17.024;2024-01-06T04:25:00;44.4;;;28.6;;
68319;SDS011;55168;51.120;17.024;2024-01-06T04:26:00;44.4;;;28.6;;
68319;SDS011;55168;51.120;17.024;2024-01-06T04:27:00;44.4;;;28.6;;
68319;SDS011;55168;51.120;17.024;2024-01-06T04:28:00;44.4;;;28.6;;
68319;SDS011;55168;51.120;17.024;2024-01-06T04:29:00;44.4;;;28.6;;
68319;SDS011;55168;51.120;17.024;2024-01-06T04:30:00;44.4;;;28.6;;
68319;SDS011;55168;51.120;17.024;2024-01-06T04:31:00;44.4;;;28.6;;
68319;SDS011;55168;51.120;17.024;2024-01-06T04:32:00;44.4;;;28.6;;
68319;SDS011;55168;51.120;17.024;2024-01-06T04:33:00;44.4;;;28.6;;
68319;SDS011;55168;51.120;17.024;2024-01-06T04:34:00;44.4;;;28.6;;
68319;SDS011;55168;51.120;17.024;2024-01-06T04:35:00;44.2;;;27.2;;
68319;SDS011;55168;51.120;17.024;2024-01-06T04:36:00;44.2;;;27.2;;
68319;SDS011;55168;51.120;17.024;2024-01-06T04:37:00;44.2;;;27.2;;
68319;SDS011;55168;51.120;17.024;2024-01-06T04:38:00;44.2;;;27.2;;
68319;SDS011;55168;51.120;17.024;2024-01-06T04:39:00;44.2;;;27.2;;
68319;SDS011;55168;51.120;17.024;2024-01-06T04:40:00;43.3;;;26.7;;
68319;SDS011;55168;51.120;17.024;2024-01-06T04:41:00;43.3;;;26.7;;
68319;SDS011;55168;51.120;17.024;2024-01-06T04:42:00;43.3;;;26.7;;
68319;SDS011;55168;51.120;17.024;2024-01-06T04:43:00;43.3;;;26.7;;
68319;SDS011;55168;51.120;17.024;2024-01-06T04:44:01;43.3;;;26.7;;
68319;SDS011;55168;51.120;17.024;2024-01-06T04:45:00;45.9;;;28.6;;
68319;SDS011;55168;51.120;17.024;2024-01-06T04:46:00;45.9;;;28.6;;
68319;SDS011;55168;51.120;17.024;2024-01-06T04:47:00;45.9;;;28.6;;
68319;SDS011;55168;51.120;17.024;2024-01-06T04:48:00;45.9;;;28.6;;
68319;SDS011;55168;51.120;17.024;2024-01-06T04:49:00;45.9;;;28.6;;
68319;SDS011;55168;51.120;17.024;2024-01-06T04:50:00;47.9;;;29.4;;
68319;SDS011;55168;51.120;17.024;2024-01-06T04:51:00;47.9;;;29.4;;
68319;SDS011;55168;51.120;17.024;2024-01-06T04:52:00;47.9;;;29.4;;
68319;SDS011;55168;51.120;17.024;2024-01-06T04:53:00;47.9;;;29.4;;
68319;SDS011;55168;51.120;17.024;2024-01-06T04:54:00;47.9;;;29.4;;
68319;SDS011;55168;51.120;17.024;2024-01-06T04:55:00;45.9;;;28.9;;
68319;SDS011;55168;51.120;17.024;2024-01-06T04:56:00;45.9;;;28.9;;
68319;SDS011;55168;51.120;17.024;2024-01-06T04:57:00;45.9;;;28.9;;
68319;SDS011;55168;51.120;17.024;2024-01-06T04:58:00;45.9;;;28.9;;
68319;SDS011;55168;51.120;17.024;2024-01-06T04:59:00;45.9;;;28.9;;
68319;SDS011;55168;51.120;17.024;2024-01-06T05:00:00;49.8;;;29.8;;
68319;SDS011;55168;51.120;17.024;2024-01-06T05:01:00;49.8;;;29.8;;
68319;SDS011;55168;51.120;17.024;2024-01-06T05:02:00;49.8;;;29.8;;
68319;SDS011;55168;51.120;17.024;2024-01-06T05:03:00;49.8;;;29.8;;
68319;SDS011;55168;51.120;17.024;2024-01-06T05:04:00;49.8;;;29.8;;
68319;SDS011;55168;51.120;17.024;2024-01-06T05:05:00;48.0;;;29.6;;
68319;SDS011;55168;51.120;17.024;2024-01-06T05:06:00;48.0;;;29.6;;
68319;SDS011;55168;51.120;17.024;2024-01-06T05:07:00;48.0;;;29.6;;
68319;SDS011;55168;51.120;17.024;2024-01-06T05:08:00;48.0;;;29.6;;
68319;SDS011;55168;51.120;17.024;2024-01-06T05:09:00;48.0;;;29.6;;
68319;SDS011;55168;51.120;17.024;2024-01-06T05:10:00;48.5;;;28.8;;
68319;SDS011;55168;51.120;17.024;2024-01-06T05:11:00;48.5;;;28.8;;
68319;SDS011;55168;51.120;17.024;2024-01-06T05:12:00;48.5;;;28.8;;
68319;SDS011;55168;51.120;17.024;2024-01-06T05:13:00;48.5;;;28.8;;
68319;SDS011;55168;51.120;17.024;2024-01-06T05:14:00;48.5;;;28.8;;
68319;SDS011;55168;51.120;17.024;2024-01-06T05:15:00;48.0;;;29.3;;
68319;SDS011;55168;51.120;17.024;2024-01-06T05:16:00;48.0;;;29.3;;
68319;SDS011;55168;51.120;17.024;2024-01-06T05:17:00;48.0;;;29.3;;
68319;SDS011;55168;51.120;17.024;2024-01-06T05:18:00;48.0;;;29.3;;
68319;SDS011;55168;51.120;17.024;2024-01-06T05:19:00;48.0;;;29.3;;
68319;SDS011;55168;51.120;17.024;2024-01-06T05:20:00;49.1;;;31.3;;
68319;SDS011;55168;51.120;17.024;2024-01-06T05:21:01;49.1;;;31.3;;
68319;SDS011;55168;51.120;17.024;2024-01-06T05:22:00;49.1;;;31.3;;
68319;SDS011;55168;51.120;17.024;2024-01-06T05:23:00;49.1;;;31.3;;
68319;SDS011;55168;51.120;17.024;2024-01-06T05:24:00;49.1;;;31.3;;
68319;SDS011;55168;51.120;17.024;2024-01-06T05:25:00;51.6;;;31.1;;
68319;SDS011;55168;51.120;17.024;2024-01-06T05:26:00;51.6;;;31.1;;
68319;SDS011;55168;51.120;17.024;2024-01-06T05:27:00;51.6;;;31.1;;
68319;SDS011;55168;51.120;17.024;2024-01-06T05:28:00;51.6;;;31.1;;
68319;SDS011;55168;51.120;17.024;2024-01-06T05:29:00;51.6;;;31.1;;
68319;SDS011;55168;51.120;17.024;2024-01-06T05:30:00;50.1;;;30.9;;
68319;SDS011;55168;51.120;17.024;2024-01-06T05:31:00;50.1;;;30.9;;
68319;SDS011;55168;51.120;17.024;2024-01-06T05:32:00;50.1;;;30.9;;
68319;SDS011;55168;51.120;17.024;2024-01-06T05:33:00;50.1;;;30.9;;
68319;SDS011;55168;51.120;17.024;2024-01-06T05:34:00;50.1;;;30.9;;
68319;SDS011;55168;51.120;17.024;2024-01-06T05:35:00;52.3;;;31.0;;
68319;SDS011;55168;51.120;17.024;2024-01-06T05:36:00;52.3;;;31.0;;
68319;SDS011;55168;51.120;17.024;2024-01-06T05:37:00;52.3;;;31.0;;
68319;SDS011;55168;51.120;17.024;2024-01-06T05:38:00;52.3;;;31.0;;
68319;SDS011;55168;51.120;17.024;2024-01-06T05:39:00;52.3;;;31.0;;
68319;SDS011;55168;51.120;17.024;2024-01-06T05:40:00;48.5;;;30.8;;
68319;SDS011;55168;51.120;17.024;2024-01-06T05:41:00;48.5;;;30.8;;
68319;SDS011;55168;51.120;17.024;2024-01-06T05:42:00;48.5;;;30.8;;
68319;SDS011;55168;51.120;17.024;2024-01-06T05:43:00;48.5;;;30.8;;
68319;SDS011;55168;51.120;17.024;2024-01-06T05:44:00;48.5;;;30.8;;
68319;SDS011;55168;51.120;17.024;2024-01-06T05:45:00;52.1;;;31.7;;
68319;SDS011;55168;51.120;17.024;2024-01-06T05:46:00;52.1;;;31.7;;
68319;SDS011;55168;51.120;17.024;2024-01-06T05:47:00;52.1;;;31.7;;
68319;SDS011;55168;51.120;17.024;2024-01-06T05:48:00;52.1;;;31.7;;
68319;SDS011;55168;51.120;17.024;2024-01-06T05:49:00;52.1;;;31.7;;
68319;SDS011;55168;51.120;17.024;2024-01-06T05:50:00;50.4;;;32.0;;
68319;SDS011;55168;51.120;17.024;2024-01-06T05:51:00;50.4;;;32.0;;
68319;SDS011;55168;51.120;17.024;2024-01-06T05:52:00;50.4;;;32.0;;
68319;SDS011;55168;51.120;17.024;2024-01-06T05:53:00;50.4;;;32.0;;
68319;SDS011;55168;51.120;17.024;2024-01-06T05:54:00;50.4;;;32.0;;
68319;SDS011;55168;51.120;17.024;2024-01-06T05:55:00;46.9;;;30.3;;